Time;durP1;ratioP1;P1;durP2;ratioP2;P2;SDS_P1;SDS_P2;PMS_P1;PMS_P2;Temp;Humidity;BMP_temperature;BMP_pressure;BME280_temperature;BME280_humidity;BME280_pressure;Samples;Min_cycle;Max_cycle;Signal;HPM_P1;HPM_P2
2023/08/27 00:00:45;;;;;;;4.80;1.20;;;18.60;99.90;;;;;;4970331;28;20603;-78
2023/08/27 00:03:10;;;;;;;2.57;1.30;;;18.60;99.90;;;;;;4956952;28;20184;-78
2023/08/27 00:05:43;;;;;;;2.03;1.03;;;18.60;99.90;;;;;;4977114;28;20206;-78
2023/08/27 00:08:10;;;;;;;2.07;1.03;;;18.60;99.90;;;;;;4974575;28;20613;-78
2023/08/27 00:10:35;;;;;;;1.60;0.90;;;18.60;99.90;;;;;;4974976;28;20630;-78
2023/08/27 00:13:01;;;;;;;4.90;1.37;;;18.60;99.90;;;;;;4984389;28;20606;-78
2023/08/27 00:15:27;;;;;;;3.00;0.93;;;18.60;99.90;;;;;;4972218;28;20204;-78
2023/08/27 00:17:52;;;;;;;3.23;1.43;;;18.70;99.90;;;;;;4980451;28;20215;-78
2023/08/27 00:20:18;;;;;;;1.80;1.10;;;18.70;99.90;;;;;;4969982;28;20221;-78
2023/08/27 00:22:44;;;;;;;2.07;1.00;;;18.70;99.90;;;;;;4979522;28;20175;-78
2023/08/27 00:25:09;;;;;;;1.80;0.80;;;18.60;99.90;;;;;;4983337;28;20179;-77
2023/08/27 00:27:35;;;;;;;1.80;0.70;;;18.70;99.90;;;;;;4988630;28;20208;-77
2023/08/27 00:30:04;;;;;;;2.33;0.83;;;18.60;99.90;;;;;;4981176;28;20203;-77
2023/08/27 00:32:33;;;;;;;2.03;0.80;;;18.60;99.90;;;;;;4963632;28;20188;-77
2023/08/27 00:34:59;;;;;;;2.33;0.93;;;18.60;99.90;;;;;;4969960;28;20606;-77
2023/08/27 00:37:26;;;;;;;1.50;0.73;;;18.60;99.90;;;;;;4985114;28;20643;-78
2023/08/27 00:39:52;;;;;;;2.13;1.00;;;18.60;99.90;;;;;;4977893;28;20631;-78
2023/08/27 00:42:19;;;;;;;2.10;1.00;;;18.60;99.90;;;;;;4984162;28;20191;-78
2023/08/27 00:44:45;;;;;;;2.00;0.90;;;18.60;99.90;;;;;;4973555;28;20592;-78
2023/08/27 00:47:12;;;;;;;2.33;1.10;;;18.60;99.90;;;;;;4987626;28;21265;-78
2023/08/27 00:49:39;;;;;;;2.60;1.63;;;18.50;99.90;;;;;;4946778;29;20603;-78
2023/08/27 00:52:06;;;;;;;3.13;0.97;;;18.50;99.90;;;;;;4985261;28;20583;-78
2023/08/27 00:54:32;;;;;;;3.83;1.23;;;18.50;99.90;;;;;;4980193;28;20588;-77
2023/08/27 00:56:59;;;;;;;2.40;1.57;;;18.50;99.90;;;;;;4972740;29;20606;-77
2023/08/27 00:59:25;;;;;;;1.70;1.00;;;18.50;99.90;;;;;;4980705;28;20614;-77
2023/08/27 01:01:52;;;;;;;6.50;1.30;;;18.50;99.90;;;;;;4973657;28;20592;-77
2023/08/27 01:04:17;;;;;;;2.90;1.50;;;18.50;99.90;;;;;;4981823;28;20590;-77
2023/08/27 01:06:43;;;;;;;2.60;1.50;;;18.50;99.90;;;;;;4966894;28;20628;-77
2023/08/27 01:09:44;;;;;;;2.50;1.53;;;18.40;99.90;;;;;;5001898;23;20229;-77
2023/08/27 01:12:26;;;;;;;2.60;1.20;;;18.40;99.90;;;;;;4956158;28;20683;-77
2023/08/27 01:14:53;;;;;;;3.03;1.40;;;18.40;99.90;;;;;;4969497;28;20566;-77
2023/08/27 01:17:21;;;;;;;2.40;1.50;;;18.40;99.90;;;;;;4962864;28;21022;-78
2023/08/27 01:19:48;;;;;;;2.27;1.60;;;18.40;99.90;;;;;;4953636;28;20298;-78
2023/08/27 01:22:16;;;;;;;8.23;1.90;;;18.30;99.90;;;;;;4970827;28;20651;-78
2023/08/27 01:24:42;;;;;;;3.00;1.40;;;18.30;99.90;;;;;;4973284;28;20706;-78
2023/08/27 01:27:38;;;;;;;4.17;1.30;;;18.40;99.90;;;;;;4971662;28;20682;-79
2023/08/27 01:30:17;;;;;;;2.83;1.40;;;18.30;99.90;;;;;;4962600;28;20297;-79
2023/08/27 01:32:49;;;;;;;2.50;1.10;;;18.30;99.90;;;;;;4975525;28;20590;-79
2023/08/27 01:35:15;;;;;;;2.63;1.53;;;18.30;99.90;;;;;;4983092;28;20602;-78
2023/08/27 01:37:41;;;;;;;6.07;1.67;;;18.30;99.90;;;;;;4969387;28;20604;-79
2023/08/27 01:40:08;;;;;;;1.80;1.10;;;18.30;99.90;;;;;;4958056;28;20594;-78
2023/08/27 01:42:35;;;;;;;2.63;1.20;;;18.30;99.90;;;;;;4991020;28;20595;-78
2023/08/27 01:45:03;;;;;;;4.80;1.73;;;18.30;99.90;;;;;;4959007;28;20594;-78
2023/08/27 01:47:30;;;;;;;2.57;1.40;;;18.30;99.90;;;;;;4991094;28;21163;-78
2023/08/27 01:49:56;;;;;;;3.40;1.20;;;18.30;99.90;;;;;;4990902;28;20829;-78
2023/08/27 01:52:22;;;;;;;2.63;1.40;;;18.30;99.90;;;;;;4990457;28;20241;-78
2023/08/27 01:54:48;;;;;;;2.50;1.40;;;18.30;99.90;;;;;;4980263;28;20175;-78
2023/08/27 01:57:14;;;;;;;3.60;1.70;;;18.30;99.90;;;;;;4942619;28;20706;-78
2023/08/27 01:59:39;;;;;;;1.97;1.10;;;18.40;99.90;;;;;;4971442;28;20611;-78
2023/08/27 02:02:05;;;;;;;3.30;1.43;;;18.40;99.90;;;;;;4971464;28;20199;-78
2023/08/27 02:04:31;;;;;;;3.07;1.50;;;18.40;99.90;;;;;;4971350;28;20176;-78
2023/08/27 02:06:56;;;;;;;2.43;1.27;;;18.40;99.90;;;;;;4952475;28;20671;-79
2023/08/27 02:09:22;;;;;;;3.37;1.70;;;18.40;99.90;;;;;;4990051;28;20217;-78
2023/08/27 02:11:49;;;;;;;3.40;1.70;;;18.50;99.90;;;;;;4990598;28;20197;-79
2023/08/27 02:14:15;;;;;;;3.57;1.57;;;18.50;99.90;;;;;;4990513;28;20187;-79
2023/08/27 02:16:41;;;;;;;4.53;1.93;;;18.50;99.90;;;;;;4990399;28;20594;-78
2023/08/27 02:19:07;;;;;;;2.23;1.50;;;18.50;99.90;;;;;;4987740;28;20979;-78
2023/08/27 02:21:32;;;;;;;4.40;1.80;;;18.50;99.90;;;;;;4978759;28;20182;-79
2023/08/27 02:23:58;;;;;;;3.57;1.40;;;18.50;99.90;;;;;;4984489;28;20584;-79
2023/08/27 02:26:24;;;;;;;4.80;1.40;;;18.50;99.90;;;;;;4958197;28;20278;-78
2023/08/27 02:28:49;;;;;;;1.90;1.20;;;18.50;99.90;;;;;;4987601;28;20214;-78
2023/08/27 02:31:16;;;;;;;3.63;1.23;;;18.50;99.90;;;;;;4974396;28;20227;-78
2023/08/27 02:33:43;;;;;;;2.40;1.23;;;18.50;99.90;;;;;;4957925;28;20586;-79
2023/08/27 02:36:09;;;;;;;2.10;1.33;;;18.50;99.90;;;;;;4991707;28;20582;-79
2023/08/27 02:38:35;;;;;;;4.60;1.73;;;18.40;99.90;;;;;;4986423;28;20618;-79
2023/08/27 02:41:01;;;;;;;2.20;1.40;;;18.40;99.90;;;;;;4939133;28;20636;-79
2023/08/27 02:43:27;;;;;;;4.03;1.97;;;18.40;99.90;;;;;;4987995;28;20594;-79
2023/08/27 02:45:53;;;;;;;2.47;1.30;;;18.30;99.90;;;;;;4990308;28;20633;-78
2023/08/27 02:48:18;;;;;;;2.00;1.10;;;18.30;99.90;;;;;;4991258;28;20206;-79
2023/08/27 02:50:44;;;;;;;1.77;1.20;;;18.20;99.90;;;;;;4990276;28;21258;-78
2023/08/27 02:53:10;;;;;;;2.80;1.37;;;18.20;99.90;;;;;;5010402;28;20647;-79
2023/08/27 02:55:35;;;;;;;2.73;1.60;;;18.20;99.90;;;;;;4995282;28;20179;-78
2023/08/27 02:58:02;;;;;;;3.70;1.20;;;18.10;99.90;;;;;;4947674;29;21216;-78
2023/08/27 03:00:28;;;;;;;2.00;1.13;;;18.10;99.90;;;;;;4974497;28;20183;-78
2023/08/27 03:02:54;;;;;;;3.03;1.30;;;18.10;99.90;;;;;;4974700;28;20733;-78
2023/08/27 03:05:19;;;;;;;4.30;1.20;;;18.10;99.90;;;;;;4990513;28;20600;-78
2023/08/27 03:07:45;;;;;;;1.97;1.00;;;18.10;99.90;;;;;;4993478;28;20544;-78
2023/08/27 03:10:13;;;;;;;1.90;1.20;;;18.10;99.90;;;;;;4993663;28;20209;-79
2023/08/27 03:12:39;;;;;;;3.93;1.00;;;18.10;99.90;;;;;;4993749;28;20597;-79
2023/08/27 03:15:06;;;;;;;3.20;1.40;;;18.10;99.90;;;;;;4994687;28;21139;-79
2023/08/27 03:17:31;;;;;;;3.00;1.40;;;18.10;99.90;;;;;;4993370;28;20183;-79
2023/08/27 03:19:57;;;;;;;2.10;0.90;;;18.10;99.90;;;;;;4993510;28;20685;-79
2023/08/27 03:22:24;;;;;;;3.60;1.13;;;18.10;99.90;;;;;;4993601;28;20639;-79
2023/08/27 03:24:50;;;;;;;1.60;0.93;;;18.10;99.90;;;;;;4977304;28;20617;-78
2023/08/27 03:27:16;;;;;;;2.03;1.10;;;18.10;99.90;;;;;;4984075;28;20952;-79
2023/08/27 03:29:43;;;;;;;2.90;1.10;;;18.10;99.90;;;;;;4964479;28;20211;-78
2023/08/27 03:32:11;;;;;;;1.70;1.10;;;18.00;99.90;;;;;;4973936;28;20591;-78
2023/08/27 03:34:37;;;;;;;4.20;1.43;;;18.00;99.90;;;;;;4974128;28;20595;-78
2023/08/27 03:37:03;;;;;;;2.43;1.30;;;18.00;99.90;;;;;;4973505;28;20575;-78
2023/08/27 03:39:29;;;;;;;2.93;1.10;;;18.00;99.90;;;;;;4972574;28;20211;-78
2023/08/27 03:41:55;;;;;;;2.47;1.00;;;18.00;99.90;;;;;;4982882;28;20594;-78
2023/08/27 03:44:22;;;;;;;2.73;1.30;;;18.00;99.90;;;;;;4952028;28;20592;-77
2023/08/27 03:46:48;;;;;;;3.37;1.03;;;18.00;99.90;;;;;;4956831;28;20594;-78
2023/08/27 03:49:14;;;;;;;2.00;1.00;;;18.00;99.90;;;;;;4982268;28;20745;-77
2023/08/27 03:51:43;;;;;;;2.20;1.07;;;18.00;99.90;;;;;;4981368;28;20743;-77
2023/08/27 03:54:08;;;;;;;3.47;1.30;;;18.00;99.90;;;;;;4991477;28;20677;-78
2023/08/27 03:56:34;;;;;;;1.93;1.00;;;18.00;99.90;;;;;;4976157;28;20180;-77
2023/08/27 03:59:03;;;;;;;3.00;1.10;;;18.00;99.90;;;;;;4983573;28;20200;-78
2023/08/27 04:01:29;;;;;;;1.70;0.87;;;18.00;99.90;;;;;;4981868;28;20689;-78
2023/08/27 04:03:55;;;;;;;4.50;1.10;;;18.00;99.90;;;;;;4951767;28;20597;-77
2023/08/27 04:06:21;;;;;;;2.03;1.20;;;18.10;99.90;;;;;;4994363;28;20586;-77
2023/08/27 04:08:48;;;;;;;1.80;1.00;;;18.10;99.90;;;;;;4978327;28;21189;-78
2023/08/27 04:11:15;;;;;;;1.90;1.27;;;18.10;99.90;;;;;;4973143;28;20626;-78
2023/08/27 04:13:40;;;;;;;2.03;0.90;;;18.10;99.90;;;;;;4973015;28;20613;-78
2023/08/27 04:16:07;;;;;;;3.73;1.20;;;18.10;99.90;;;;;;4973144;28;20593;-78
2023/08/27 04:18:34;;;;;;;1.93;1.00;;;18.10;99.90;;;;;;4974128;28;20286;-78
2023/08/27 04:21:00;;;;;;;4.70;0.90;;;18.10;99.90;;;;;;4977162;28;21218;-78
2023/08/27 04:23:27;;;;;;;1.60;1.00;;;18.20;99.90;;;;;;4984263;28;20207;-77
2023/08/27 04:25:53;;;;;;;2.77;1.00;;;18.20;99.90;;;;;;4992510;28;20594;-77
2023/08/27 04:28:20;;;;;;;1.90;0.90;;;18.20;99.90;;;;;;4984060;28;20627;-78
2023/08/27 04:30:49;;;;;;;3.00;0.90;;;18.30;99.90;;;;;;4974251;28;20634;-77
2023/08/27 04:33:16;;;;;;;2.00;0.80;;;18.30;99.90;;;;;;4972667;28;20587;-77
2023/08/27 04:35:44;;;;;;;2.37;1.13;;;18.30;99.90;;;;;;4972972;28;20595;-77
2023/08/27 04:38:10;;;;;;;3.10;0.90;;;18.40;99.90;;;;;;4950186;28;20705;-77
2023/08/27 04:40:36;;;;;;;2.20;1.00;;;18.40;99.90;;;;;;4992179;28;20582;-77
2023/08/27 04:43:02;;;;;;;1.80;0.90;;;18.40;99.90;;;;;;4992469;28;20601;-77
2023/08/27 04:45:28;;;;;;;1.83;1.00;;;18.50;99.90;;;;;;4976001;28;20589;-77
2023/08/27 04:47:54;;;;;;;1.60;1.00;;;18.50;99.90;;;;;;4991877;28;20649;-78
2023/08/27 04:50:20;;;;;;;1.77;0.90;;;18.50;99.90;;;;;;4992198;28;21234;-77
2023/08/27 04:52:45;;;;;;;2.30;1.10;;;18.60;99.90;;;;;;4992067;28;20193;-78
2023/08/27 04:55:11;;;;;;;1.90;0.90;;;18.60;99.90;;;;;;4991909;28;20667;-78
2023/08/27 04:57:37;;;;;;;1.90;0.90;;;18.60;99.90;;;;;;4991673;28;20229;-78
2023/08/27 05:00:05;;;;;;;2.27;0.90;;;18.60;99.90;;;;;;4992009;28;20590;-78
2023/08/27 05:02:32;;;;;;;2.73;0.97;;;18.70;99.90;;;;;;4991664;28;20598;-77
2023/08/27 05:04:57;;;;;;;2.27;1.00;;;18.70;99.90;;;;;;4992320;28;20955;-77
2023/08/27 05:07:23;;;;;;;2.10;1.00;;;18.70;99.90;;;;;;4967627;28;20187;-78
2023/08/27 05:09:49;;;;;;;1.80;0.90;;;18.70;99.90;;;;;;5007942;28;20218;-77
2023/08/27 05:12:15;;;;;;;1.70;0.87;;;18.70;99.90;;;;;;4975628;28;21178;-78
2023/08/27 05:14:40;;;;;;;2.07;0.90;;;18.70;99.90;;;;;;4991767;28;20641;-78
2023/08/27 05:17:06;;;;;;;1.60;0.83;;;18.80;99.90;;;;;;4986484;28;20661;-78
2023/08/27 05:19:33;;;;;;;3.57;0.90;;;18.80;99.90;;;;;;4983364;28;20282;-78
2023/08/27 05:22:00;;;;;;;3.63;1.00;;;18.80;99.90;;;;;;4991448;28;20621;-78
2023/08/27 05:24:26;;;;;;;4.17;1.20;;;18.80;99.90;;;;;;4991298;28;20232;-77
2023/08/27 05:26:52;;;;;;;3.63;1.20;;;18.80;99.90;;;;;;4991360;28;21053;-77
2023/08/27 05:29:20;;;;;;;2.00;1.00;;;18.70;99.90;;;;;;4979687;28;20225;-77
2023/08/27 05:31:46;;;;;;;2.53;0.80;;;18.60;99.90;;;;;;4990860;28;20626;-77
2023/08/27 05:34:11;;;;;;;2.33;0.80;;;18.60;99.90;;;;;;4991173;28;20268;-77
2023/08/27 05:36:37;;;;;;;1.90;1.00;;;18.50;99.90;;;;;;4991239;28;20676;-78
2023/08/27 05:39:05;;;;;;;3.33;1.07;;;18.40;99.90;;;;;;4990910;28;20195;-78
2023/08/27 05:41:31;;;;;;;1.87;0.73;;;18.30;99.90;;;;;;4993144;28;20194;-78
2023/08/27 05:43:56;;;;;;;1.93;0.90;;;18.30;99.90;;;;;;4987959;28;21183;-78
2023/08/27 05:46:22;;;;;;;1.50;0.90;;;18.20;99.90;;;;;;4987274;28;20606;-78
2023/08/27 05:48:48;;;;;;;1.73;1.00;;;18.10;99.90;;;;;;4990681;28;20294;-78
2023/08/27 05:51:14;;;;;;;3.30;0.80;;;18.10;99.90;;;;;;4977276;28;20631;-78
2023/08/27 05:53:40;;;;;;;1.80;0.70;;;18.00;99.90;;;;;;4956664;28;21226;-77
2023/08/27 05:56:05;;;;;;;1.50;0.73;;;18.00;99.90;;;;;;4991111;28;20923;-77
2023/08/27 05:58:31;;;;;;;1.50;1.10;;;18.00;99.90;;;;;;4990621;28;20207;-78
2023/08/27 06:00:58;;;;;;;3.17;1.00;;;17.90;99.90;;;;;;4990865;28;20186;-78
2023/08/27 06:03:23;;;;;;;1.60;0.80;;;17.90;99.90;;;;;;4948156;28;20168;-78
2023/08/27 06:05:50;;;;;;;3.70;1.43;;;17.80;99.90;;;;;;4952821;28;20599;-78
2023/08/27 06:08:16;;;;;;;1.70;0.93;;;17.80;99.90;;;;;;4970989;28;21016;-79
2023/08/27 06:10:42;;;;;;;1.70;0.87;;;17.80;99.90;;;;;;4969245;28;20247;-78
2023/08/27 06:13:07;;;;;;;2.10;0.90;;;17.80;99.90;;;;;;4972065;28;20647;-79
2023/08/27 06:15:37;;;;;;;1.90;1.00;;;17.80;99.90;;;;;;4979292;28;20580;-78
2023/08/27 06:18:07;;;;;;;2.53;0.90;;;17.80;99.90;;;;;;4977132;28;20203;-78
2023/08/27 06:20:34;;;;;;;4.10;0.90;;;17.80;99.90;;;;;;4979140;28;20602;-79
2023/08/27 06:23:00;;;;;;;2.20;1.00;;;17.90;99.90;;;;;;4971150;28;20587;-78
2023/08/27 06:25:26;;;;;;;1.90;1.17;;;17.90;99.90;;;;;;4970848;28;20612;-79
2023/08/27 06:27:55;;;;;;;1.90;0.90;;;17.90;99.90;;;;;;4978243;28;20690;-80
2023/08/27 06:30:24;;;;;;;2.63;0.90;;;18.00;99.90;;;;;;4991251;28;20706;-80
2023/08/27 06:32:50;;;;;;;2.10;0.90;;;18.00;99.90;;;;;;4988830;28;20586;-80
2023/08/27 06:35:17;;;;;;;3.30;1.03;;;18.10;99.90;;;;;;4957073;28;20586;-78
2023/08/27 06:37:43;;;;;;;1.70;0.80;;;18.20;99.90;;;;;;4947385;28;20595;-79
2023/08/27 06:40:09;;;;;;;2.67;1.10;;;18.20;99.90;;;;;;4969792;28;20595;-78
2023/08/27 06:42:35;;;;;;;2.50;1.13;;;18.20;99.90;;;;;;4969535;28;20238;-78
2023/08/27 06:45:04;;;;;;;2.57;0.80;;;18.30;99.90;;;;;;4989579;28;20590;-78
2023/08/27 06:47:30;;;;;;;2.50;0.90;;;18.40;99.90;;;;;;4990057;28;20229;-78
2023/08/27 06:49:56;;;;;;;2.13;1.00;;;18.60;99.90;;;;;;4957906;28;20649;-79
2023/08/27 06:52:22;;;;;;;2.63;0.73;;;18.70;99.90;;;;;;4991742;28;20707;-78
2023/08/27 06:54:48;;;;;;;1.60;0.70;;;18.80;99.90;;;;;;4983560;28;20598;-78
2023/08/27 06:57:13;;;;;;;1.70;0.90;;;18.90;99.90;;;;;;4970666;28;20957;-78
2023/08/27 06:59:41;;;;;;;3.80;1.00;;;19.10;99.90;;;;;;4968980;28;20612;-78
2023/08/27 07:02:09;;;;;;;2.60;0.70;;;19.10;99.90;;;;;;4977716;28;20687;-77
2023/08/27 07:04:35;;;;;;;3.20;0.80;;;19.20;99.90;;;;;;4986474;28;21404;-77
2023/08/27 07:07:01;;;;;;;1.70;0.70;;;19.30;99.90;;;;;;4990193;28;20533;-77
2023/08/27 07:09:27;;;;;;;1.80;0.90;;;19.40;99.90;;;;;;4987595;28;20649;-77
2023/08/27 07:11:53;;;;;;;3.13;0.80;;;19.50;99.90;;;;;;4964758;28;21349;-77
2023/08/27 07:14:19;;;;;;;2.33;0.80;;;19.50;99.90;;;;;;4970757;28;20215;-77
2023/08/27 07:16:45;;;;;;;1.40;0.80;;;19.70;99.90;;;;;;4962434;28;20623;-77
2023/08/27 07:19:20;;;;;;;1.80;0.80;;;20.10;99.90;;;;;;5002761;23;20697;-78
2023/08/27 07:21:54;;;;;;;2.57;0.80;;;20.30;99.90;;;;;;4989290;28;20171;-78
2023/08/27 07:24:33;;;;;;;2.47;0.70;;;20.50;99.90;;;;;;4963763;28;20671;-78
2023/08/27 07:27:09;;;;;;;1.53;0.73;;;20.60;99.90;;;;;;4989061;28;20674;-78
2023/08/27 07:29:43;;;;;;;1.60;0.80;;;20.70;99.90;;;;;;4956093;28;20655;-77
2023/08/27 07:32:10;;;;;;;1.60;0.80;;;20.90;99.90;;;;;;4967967;28;20954;-78
2023/08/27 07:34:49;;;;;;;2.40;0.67;;;21.00;99.90;;;;;;4955461;28;21125;-77
2023/08/27 07:37:20;;;;;;;2.93;0.70;;;21.10;99.90;;;;;;4939261;29;20604;-77
2023/08/27 07:39:56;;;;;;;1.40;0.70;;;21.20;99.90;;;;;;4952013;28;20628;-77
2023/08/27 07:42:30;;;;;;;1.80;0.97;;;21.30;99.90;;;;;;4958157;28;20607;-77
2023/08/27 07:45:09;;;;;;;3.33;0.90;;;21.60;99.90;;;;;;4955858;28;20599;-77
2023/08/27 07:47:40;;;;;;;2.43;1.00;;;22.10;99.90;;;;;;4931006;28;20643;-75
2023/08/27 07:50:06;;;;;;;1.60;0.83;;;22.70;99.90;;;;;;4944402;28;20672;-76
2023/08/27 07:52:32;;;;;;;4.00;1.03;;;23.10;99.90;;;;;;4931523;29;20219;-76
2023/08/27 07:54:58;;;;;;;1.50;0.70;;;23.50;99.90;;;;;;4948120;28;20594;-76
2023/08/27 07:57:24;;;;;;;3.00;0.70;;;23.90;99.90;;;;;;4947900;28;20195;-78
2023/08/27 07:59:51;;;;;;;1.80;0.83;;;24.30;99.90;;;;;;4933518;29;20208;-75
2023/08/27 08:02:18;;;;;;;2.50;0.83;;;24.70;99.90;;;;;;4945217;29;20686;-75
2023/08/27 08:04:44;;;;;;;2.03;0.60;;;25.20;99.90;;;;;;4927998;28;20601;-76
2023/08/27 08:07:10;;;;;;;1.73;0.63;;;25.60;99.90;;;;;;4943729;28;20603;-76
2023/08/27 08:09:35;;;;;;;3.30;1.10;;;25.90;99.90;;;;;;4930687;29;20199;-73
2023/08/27 08:12:01;;;;;;;2.13;0.77;;;26.20;99.90;;;;;;4950621;29;20191;-74
2023/08/27 08:14:27;;;;;;;2.10;1.00;;;26.30;99.90;;;;;;4952003;28;20183;-74
2023/08/27 08:16:53;;;;;;;2.13;1.20;;;26.30;99.90;;;;;;4957399;28;20191;-74
2023/08/27 08:19:20;;;;;;;5.00;1.00;;;26.20;99.90;;;;;;4949063;28;20351;-74
2023/08/27 08:21:46;;;;;;;2.00;1.00;;;26.10;99.90;;;;;;4949962;29;20216;-74
2023/08/27 08:24:13;;;;;;;2.03;0.90;;;26.00;99.90;;;;;;4951490;28;20592;-74
2023/08/27 08:26:39;;;;;;;5.73;0.97;;;25.80;99.90;;;;;;4952585;28;21318;-74
2023/08/27 08:29:04;;;;;;;2.30;0.87;;;25.60;99.90;;;;;;4955015;28;20682;-74
2023/08/27 08:31:30;;;;;;;2.10;0.90;;;25.40;99.90;;;;;;4953611;29;20606;-74
2023/08/27 08:33:56;;;;;;;2.90;0.80;;;25.20;99.90;;;;;;4955805;28;20176;-74
2023/08/27 08:36:24;;;;;;;2.57;0.90;;;25.10;99.90;;;;;;4949366;28;20610;-74
2023/08/27 08:38:50;;;;;;;1.80;0.80;;;24.90;99.90;;;;;;4949296;28;20599;-73
2023/08/27 08:41:22;;;;;;;1.83;0.90;;;24.70;99.90;;;;;;4971001;28;21079;-73
2023/08/27 08:43:52;;;;;;;1.80;0.90;;;24.50;99.90;;;;;;4953808;28;20192;-74
2023/08/27 08:46:18;;;;;;;2.60;0.87;;;24.40;99.90;;;;;;4953860;29;20979;-74
2023/08/27 08:48:49;;;;;;;4.07;0.90;;;24.20;99.90;;;;;;4937511;28;20656;-73
2023/08/27 08:51:19;;;;;;;2.40;1.00;;;24.10;99.90;;;;;;4953928;29;20651;-74
2023/08/27 08:53:49;;;;;;;1.50;0.70;;;23.90;99.90;;;;;;4954880;29;20906;-73
2023/08/27 08:56:23;;;;;;;2.90;1.07;;;23.80;99.90;;;;;;4949516;29;20623;-74
2023/08/27 08:58:57;;;;;;;2.23;0.90;;;23.70;99.90;;;;;;4954989;28;20588;-73
2023/08/27 09:01:23;;;;;;;2.47;1.00;;;23.60;99.90;;;;;;4959036;28;20612;-74
2023/08/27 09:03:51;;;;;;;1.97;0.87;;;23.50;99.90;;;;;;4976941;28;20645;-77
2023/08/27 09:06:18;;;;;;;2.00;1.10;;;23.50;99.90;;;;;;4995345;28;20594;-77
2023/08/27 09:08:44;;;;;;;2.73;1.00;;;23.40;99.90;;;;;;4992681;28;20655;-77
2023/08/27 09:11:12;;;;;;;2.00;1.20;;;23.30;99.90;;;;;;4979629;28;20642;-78
2023/08/27 09:13:38;;;;;;;2.70;0.93;;;23.30;99.90;;;;;;4947192;29;20580;-78
2023/08/27 09:16:05;;;;;;;2.77;1.10;;;23.30;99.90;;;;;;4962959;28;20587;-78
2023/08/27 09:18:31;;;;;;;2.70;1.10;;;23.30;99.90;;;;;;4952485;29;20584;-77
2023/08/27 09:20:59;;;;;;;2.00;1.00;;;23.30;99.90;;;;;;4956404;28;20642;-77
2023/08/27 09:23:25;;;;;;;2.00;1.30;;;23.30;99.90;;;;;;4965245;28;20602;-76
2023/08/27 09:25:52;;;;;;;1.40;0.80;;;23.30;99.90;;;;;;4982730;28;20588;-74
2023/08/27 09:28:18;;;;;;;1.77;0.90;;;23.30;99.90;;;;;;4963435;28;20172;-75
2023/08/27 09:30:47;;;;;;;2.13;0.90;;;23.40;99.90;;;;;;4955738;28;20765;-76
2023/08/27 09:33:13;;;;;;;2.50;1.00;;;23.50;99.90;;;;;;4946401;29;20683;-77
2023/08/27 09:35:40;;;;;;;1.80;0.90;;;23.60;99.90;;;;;;4976177;28;20682;-77
2023/08/27 09:38:07;;;;;;;1.70;1.00;;;23.50;99.90;;;;;;4959260;28;20203;-77
2023/08/27 09:40:33;;;;;;;2.23;1.00;;;23.60;99.90;;;;;;4929333;29;21306;-77
2023/08/27 09:43:06;;;;;;;1.90;0.90;;;23.70;99.90;;;;;;4950807;28;20627;-76
2023/08/27 09:45:37;;;;;;;1.93;0.80;;;23.90;99.90;;;;;;4952847;28;21267;-77
2023/08/27 09:48:04;;;;;;;2.43;1.00;;;24.20;99.90;;;;;;4938266;28;20632;-77
2023/08/27 09:50:31;;;;;;;2.00;1.10;;;24.60;99.90;;;;;;4951950;29;20747;-77
2023/08/27 09:53:13;;;;;;;3.10;1.20;;;25.40;99.90;;;;;;4959040;28;20588;-77
2023/08/27 09:55:40;;;;;;;2.70;1.20;;;26.50;99.90;;;;;;4952651;28;20591;-77
2023/08/27 09:58:05;;;;;;;2.70;1.30;;;27.70;99.90;;;;;;4960393;28;21145;-77
2023/08/27 10:00:32;;;;;;;2.30;1.20;;;28.90;99.90;;;;;;4940713;28;20695;-77
2023/08/27 10:02:58;;;;;;;2.63;1.13;;;30.00;99.90;;;;;;4953645;28;20681;-77
2023/08/27 10:05:27;;;;;;;2.10;0.97;;;31.10;99.90;;;;;;4965724;28;20680;-77
2023/08/27 10:08:02;;;;;;;2.80;1.10;;;32.10;99.90;;;;;;4972545;28;20589;-78
2023/08/27 10:10:28;;;;;;;1.80;0.80;;;33.20;99.90;;;;;;4957773;28;20663;-78
2023/08/27 10:12:55;;;;;;;2.10;0.70;;;34.00;99.90;;;;;;4968365;28;20615;-78
2023/08/27 10:15:27;;;;;;;2.37;0.83;;;34.20;99.90;;;;;;4972406;28;20586;-78
2023/08/27 10:17:53;;;;;;;2.10;0.93;;;34.50;99.90;;;;;;4970931;28;20679;-78
2023/08/27 10:20:20;;;;;;;1.53;0.70;;;35.00;99.90;;;;;;4958909;28;20700;-78
2023/08/27 10:22:49;;;;;;;2.27;1.20;;;35.50;99.90;;;;;;4953138;28;20611;-78
2023/08/27 10:25:18;;;;;;;3.97;1.60;;;35.80;97.00;;;;;;4955238;28;20584;-78
2023/08/27 10:27:48;;;;;;;2.40;1.00;;;35.80;94.90;;;;;;4960874;28;20597;-78
2023/08/27 10:30:16;;;;;;;1.80;0.90;;;35.70;92.40;;;;;;4959150;28;20701;-77
2023/08/27 10:32:42;;;;;;;2.07;1.07;;;35.70;92.30;;;;;;4957564;28;20661;-78
2023/08/27 10:35:09;;;;;;;1.80;0.80;;;35.90;92.30;;;;;;4967680;28;20590;-78
2023/08/27 10:37:38;;;;;;;1.50;0.77;;;35.90;90.90;;;;;;4951683;29;20584;-78
2023/08/27 10:40:09;;;;;;;2.40;0.80;;;35.60;88.50;;;;;;4951800;29;21482;-78
2023/08/27 10:42:39;;;;;;;4.50;0.70;;;35.40;87.00;;;;;;4968056;28;20587;-78
2023/08/27 10:45:15;;;;;;;1.60;0.80;;;35.30;85.70;;;;;;4971066;28;20598;-78
2023/08/27 10:47:41;;;;;;;2.43;0.80;;;34.80;79.90;;;;;;4971522;28;20609;-78
2023/08/27 10:50:07;;;;;;;1.60;0.70;;;34.30;80.10;;;;;;4967867;28;20642;-78
2023/08/27 10:52:50;;;;;;;3.50;1.00;;;33.70;77.80;;;;;;4935359;29;20600;-78
2023/08/27 10:55:20;;;;;;;1.50;0.60;;;33.10;76.00;;;;;;4950918;28;20950;-77
2023/08/27 10:57:46;;;;;;;4.23;0.70;;;32.60;78.30;;;;;;4953289;28;20641;-77
2023/08/27 11:00:13;;;;;;;2.10;0.90;;;32.40;80.40;;;;;;4968720;28;20722;-77
2023/08/27 11:07:28;;;;;;;1.83;0.60;;;31.90;76.20;;;;;;4960687;28;20655;-76
2023/08/27 11:09:58;;;;;;;2.00;0.67;;;32.00;80.90;;;;;;4971627;28;20718;-77
2023/08/27 11:12:28;;;;;;;1.93;0.70;;;32.20;82.00;;;;;;4956722;28;21227;-77
2023/08/27 11:14:54;;;;;;;2.00;0.70;;;32.40;82.20;;;;;;4976014;28;20567;-77
2023/08/27 11:17:28;;;;;;;2.63;0.70;;;32.60;81.20;;;;;;4964316;28;20576;-77
2023/08/27 11:19:57;;;;;;;1.80;0.63;;;32.70;77.60;;;;;;4959007;28;20646;-77
2023/08/27 11:22:24;;;;;;;1.90;0.90;;;32.60;75.40;;;;;;4966977;28;21060;-76
2023/08/27 11:24:52;;;;;;;3.20;1.90;;;32.40;73.70;;;;;;4975744;28;20640;-76
2023/08/27 11:27:22;;;;;;;1.80;0.80;;;32.00;72.10;;;;;;4970634;28;21153;-77
2023/08/27 11:29:51;;;;;;;1.77;0.83;;;31.70;73.20;;;;;;4958417;28;20609;-76
2023/08/27 11:32:23;;;;;;;2.60;0.70;;;31.70;75.80;;;;;;4973727;28;20938;-78
2023/08/27 11:34:53;;;;;;;2.17;0.80;;;31.70;76.10;;;;;;4960010;28;20586;-78
2023/08/27 11:37:21;;;;;;;2.57;0.90;;;31.80;76.40;;;;;;4975270;28;20609;-77
2023/08/27 11:39:47;;;;;;;2.83;1.17;;;32.00;77.30;;;;;;4974138;28;21196;-77
2023/08/27 11:42:15;;;;;;;2.20;1.10;;;32.30;77.60;;;;;;4955390;28;20685;-76
2023/08/27 11:44:52;;;;;;;2.10;1.20;;;32.40;75.40;;;;;;4955941;28;20591;-75
2023/08/27 11:47:19;;;;;;;2.13;1.20;;;32.50;73.00;;;;;;4958652;28;20683;-76
2023/08/27 11:49:45;;;;;;;2.77;0.80;;;32.80;75.20;;;;;;4972399;28;20632;-76
2023/08/27 11:52:14;;;;;;;2.40;0.70;;;32.90;75.20;;;;;;4972470;28;20594;-76
2023/08/27 11:54:46;;;;;;;1.63;0.70;;;33.10;73.10;;;;;;4975222;28;20590;-77
2023/08/27 11:57:14;;;;;;;2.73;0.80;;;33.30;74.20;;;;;;4975296;28;20642;-77
2023/08/27 11:59:40;;;;;;;1.50;0.70;;;33.50;73.50;;;;;;4969512;28;20976;-77
2023/08/27 12:02:07;;;;;;;1.60;0.80;;;33.70;72.60;;;;;;4974677;28;20598;-77
2023/08/27 12:04:33;;;;;;;1.60;0.80;;;33.80;70.90;;;;;;4975104;28;20259;-77
2023/08/27 12:07:01;;;;;;;1.40;0.60;;;33.60;67.90;;;;;;4963170;28;20628;-77
2023/08/27 12:09:29;;;;;;;3.60;0.87;;;33.30;65.80;;;;;;4953680;29;20632;-77
2023/08/27 12:11:59;;;;;;;4.00;0.90;;;33.00;65.40;;;;;;4955352;28;20637;-77
2023/08/27 12:14:26;;;;;;;2.30;1.00;;;32.50;63.10;;;;;;4959577;28;20970;-77
2023/08/27 12:16:53;;;;;;;1.60;0.70;;;32.00;63.00;;;;;;4968719;28;20583;-76
2023/08/27 12:19:23;;;;;;;3.03;1.10;;;31.50;63.10;;;;;;4953638;28;21243;-77
2023/08/27 12:21:51;;;;;;;1.83;0.90;;;31.10;64.00;;;;;;4961820;28;20586;-77
2023/08/27 12:24:40;;;;;;;2.30;0.90;;;30.80;65.20;;;;;;4988801;28;21194;-77
2023/08/27 12:27:18;;;;;;;2.20;0.87;;;30.40;64.50;;;;;;4973215;28;20586;-77
2023/08/27 12:29:46;;;;;;;2.03;0.70;;;30.10;64.50;;;;;;4955793;28;20687;-76
2023/08/27 12:32:20;;;;;;;1.40;0.60;;;29.90;65.80;;;;;;4954211;28;20612;-77
2023/08/27 12:34:48;;;;;;;1.63;0.70;;;29.70;67.20;;;;;;4963188;28;20596;-77
2023/08/27 12:37:17;;;;;;;1.90;0.70;;;29.60;68.00;;;;;;4955442;28;20599;-77
2023/08/27 12:39:43;;;;;;;1.70;0.70;;;29.50;68.90;;;;;;4973008;28;20627;-77
2023/08/27 12:42:11;;;;;;;2.13;1.10;;;29.60;69.90;;;;;;4963962;28;20591;-77
2023/08/27 12:44:38;;;;;;;1.73;0.80;;;29.50;70.30;;;;;;4967454;28;20591;-75
2023/08/27 12:47:06;;;;;;;3.00;0.90;;;29.50;69.70;;;;;;4971983;28;20621;-75
2023/08/27 12:49:32;;;;;;;2.07;0.70;;;29.50;69.70;;;;;;4973328;28;20624;-76
2023/08/27 12:51:58;;;;;;;2.70;0.80;;;29.50;70.60;;;;;;4979801;28;20631;-77
2023/08/27 12:54:25;;;;;;;2.87;1.53;;;29.50;69.00;;;;;;4977182;28;20603;-77